sensor_id;sensor_type;location;lat;lon;timestamp;P1;durP1;ratioP1;P2;durP2;ratioP2
51602;SDS011;37954;51.980;5.850;2023-11-18T00:01:56;42.47;;;26.10;;
51602;SDS011;37954;51.980;5.850;2023-11-18T00:06:08;46.63;;;25.17;;
51602;SDS011;37954;51.980;5.850;2023-11-18T00:10:19;44.33;;;26.03;;
51602;SDS011;37954;51.980;5.850;2023-11-18T00:14:31;36.77;;;23.13;;
51602;SDS011;37954;51.980;5.850;2023-11-18T00:18:43;35.03;;;20.87;;
51602;SDS011;37954;51.980;5.850;2023-11-18T00:22:54;29.50;;;18.97;;
51602;SDS011;37954;51.980;5.850;2023-11-18T00:27:06;27.20;;;17.83;;
51602;SDS011;37954;51.980;5.850;2023-11-18T00:31:18;25.07;;;16.37;;
51602;SDS011;37954;51.980;5.850;2023-11-18T00:35:29;24.77;;;17.50;;
51602;SDS011;37954;51.980;5.850;2023-11-18T00:39:43;31.43;;;19.23;;
51602;SDS011;37954;51.980;5.850;2023-11-18T00:43:54;32.90;;;20.53;;
51602;SDS011;37954;51.980;5.850;2023-11-18T00:48:09;30.60;;;19.97;;
51602;SDS011;37954;51.980;5.850;2023-11-18T00:52:33;30.33;;;19.27;;
51602;SDS011;37954;51.980;5.850;2023-11-18T00:56:45;30.53;;;17.93;;
51602;SDS011;37954;51.980;5.850;2023-11-18T01:00:56;24.10;;;17.07;;
51602;SDS011;37954;51.980;5.850;2023-11-18T01:05:08;22.57;;;15.33;;
51602;SDS011;37954;51.980;5.850;2023-11-18T01:09:22;23.43;;;15.83;;
51602;SDS011;37954;51.980;5.850;2023-11-18T01:13:33;25.47;;;16.27;;
51602;SDS011;37954;51.980;5.850;2023-11-18T01:17:45;20.03;;;14.97;;
51602;SDS011;37954;51.980;5.850;2023-11-18T01:21:57;19.57;;;14.57;;
51602;SDS011;37954;51.980;5.850;2023-11-18T01:26:09;24.53;;;15.70;;
51602;SDS011;37954;51.980;5.850;2023-11-18T01:30:21;20.47;;;13.97;;
51602;SDS011;37954;51.980;5.850;2023-11-18T01:34:35;23.77;;;15.07;;
51602;SDS011;37954;51.980;5.850;2023-11-18T01:38:49;21.47;;;14.33;;
51602;SDS011;37954;51.980;5.850;2023-11-18T01:43:01;21.60;;;15.87;;
51602;SDS011;37954;51.980;5.850;2023-11-18T01:47:13;21.37;;;14.90;;
51602;SDS011;37954;51.980;5.850;2023-11-18T01:51:25;22.53;;;15.67;;
51602;SDS011;37954;51.980;5.850;2023-11-18T01:55:37;21.37;;;14.43;;
51602;SDS011;37954;51.980;5.850;2023-11-18T01:59:50;24.30;;;16.40;;
51602;SDS011;37954;51.980;5.850;2023-11-18T02:04:01;23.33;;;15.07;;
51602;SDS011;37954;51.980;5.850;2023-11-18T02:08:14;22.70;;;16.00;;
51602;SDS011;37954;51.980;5.850;2023-11-18T02:12:29;26.40;;;16.10;;
51602;SDS011;37954;51.980;5.850;2023-11-18T02:16:45;25.03;;;16.83;;
51602;SDS011;37954;51.980;5.850;2023-11-18T02:21:00;25.70;;;15.27;;
51602;SDS011;37954;51.980;5.850;2023-11-18T02:25:16;25.03;;;15.83;;
51602;SDS011;37954;51.980;5.850;2023-11-18T02:29:32;24.73;;;16.37;;
51602;SDS011;37954;51.980;5.850;2023-11-18T02:33:51;23.40;;;16.13;;
51602;SDS011;37954;51.980;5.850;2023-11-18T02:38:10;24.37;;;15.40;;
51602;SDS011;37954;51.980;5.850;2023-11-18T02:42:23;26.20;;;17.23;;
51602;SDS011;37954;51.980;5.850;2023-11-18T02:46:36;26.50;;;17.17;;
51602;SDS011;37954;51.980;5.850;2023-11-18T02:50:50;25.90;;;17.27;;
51602;SDS011;37954;51.980;5.850;2023-11-18T02:55:02;28.97;;;17.00;;
51602;SDS011;37954;51.980;5.850;2023-11-18T02:59:14;28.50;;;17.87;;
51602;SDS011;37954;51.980;5.850;2023-11-18T03:03:27;28.50;;;18.03;;
51602;SDS011;37954;51.980;5.850;2023-11-18T03:07:58;27.77;;;17.83;;
51602;SDS011;37954;51.980;5.850;2023-11-18T03:12:10;29.13;;;17.63;;
51602;SDS011;37954;51.980;5.850;2023-11-18T03:16:23;28.60;;;17.63;;
51602;SDS011;37954;51.980;5.850;2023-11-18T03:20:36;28.70;;;16.97;;
51602;SDS011;37954;51.980;5.850;2023-11-18T03:24:48;34.30;;;18.10;;
51602;SDS011;37954;51.980;5.850;2023-11-18T03:29:00;36.03;;;18.63;;
51602;SDS011;37954;51.980;5.850;2023-11-18T03:33:12;39.17;;;20.03;;
51602;SDS011;37954;51.980;5.850;2023-11-18T03:37:25;43.90;;;18.27;;
51602;SDS011;37954;51.980;5.850;2023-11-18T03:41:37;42.33;;;19.20;;
51602;SDS011;37954;51.980;5.850;2023-11-18T03:45:49;39.83;;;18.27;;
51602;SDS011;37954;51.980;5.850;2023-11-18T03:50:01;54.90;;;20.00;;
51602;SDS011;37954;51.980;5.850;2023-11-18T03:54:13;63.23;;;18.43;;
51602;SDS011;37954;51.980;5.850;2023-11-18T03:58:25;69.23;;;17.97;;
51602;SDS011;37954;51.980;5.850;2023-11-18T04:02:36;78.50;;;20.00;;
51602;SDS011;37954;51.980;5.850;2023-11-18T04:06:51;70.47;;;18.00;;
51602;SDS011;37954;51.980;5.850;2023-11-18T04:11:03;46.37;;;18.47;;
51602;SDS011;37954;51.980;5.850;2023-11-18T04:15:15;83.60;;;19.57;;
51602;SDS011;37954;51.980;5.850;2023-11-18T04:19:27;61.97;;;19.27;;
51602;SDS011;37954;51.980;5.850;2023-11-18T04:23:39;59.10;;;19.63;;
51602;SDS011;37954;51.980;5.850;2023-11-18T04:27:53;47.57;;;19.93;;
51602;SDS011;37954;51.980;5.850;2023-11-18T04:32:04;38.47;;;19.30;;
51602;SDS011;37954;51.980;5.850;2023-11-18T04:36:17;79.97;;;20.73;;
51602;SDS011;37954;51.980;5.850;2023-11-18T04:40:30;61.77;;;20.57;;
51602;SDS011;37954;51.980;5.850;2023-11-18T04:44:42;53.07;;;20.50;;
51602;SDS011;37954;51.980;5.850;2023-11-18T04:48:53;37.30;;;18.07;;
51602;SDS011;37954;51.980;5.850;2023-11-18T04:53:06;39.57;;;19.43;;
51602;SDS011;37954;51.980;5.850;2023-11-18T04:57:19;48.60;;;18.50;;
51602;SDS011;37954;51.980;5.850;2023-11-18T05:01:31;45.90;;;19.20;;
51602;SDS011;37954;51.980;5.850;2023-11-18T05:05:44;54.13;;;18.93;;
51602;SDS011;37954;51.980;5.850;2023-11-18T05:09:55;54.77;;;18.17;;
51602;SDS011;37954;51.980;5.850;2023-11-18T05:14:07;42.93;;;18.77;;
51602;SDS011;37954;51.980;5.850;2023-11-18T05:18:19;34.33;;;17.90;;
51602;SDS011;37954;51.980;5.850;2023-11-18T05:22:30;49.83;;;19.17;;
51602;SDS011;37954;51.980;5.850;2023-11-18T05:26:42;43.23;;;17.87;;
51602;SDS011;37954;51.980;5.850;2023-11-18T05:30:54;45.10;;;17.77;;
51602;SDS011;37954;51.980;5.850;2023-11-18T05:35:09;32.20;;;19.30;;
51602;SDS011;37954;51.980;5.850;2023-11-18T05:39:23;41.63;;;17.77;;
51602;SDS011;37954;51.980;5.850;2023-11-18T05:43:39;32.17;;;18.50;;
51602;SDS011;37954;51.980;5.850;2023-11-18T05:48:02;27.70;;;17.70;;
51602;SDS011;37954;51.980;5.850;2023-11-18T05:52:15;30.93;;;18.93;;
51602;SDS011;37954;51.980;5.850;2023-11-18T05:56:26;32.30;;;18.17;;
51602;SDS011;37954;51.980;5.850;2023-11-18T06:00:38;27.63;;;18.10;;
51602;SDS011;37954;51.980;5.850;2023-11-18T06:04:52;27.63;;;17.87;;
51602;SDS011;37954;51.980;5.850;2023-11-18T06:09:06;26.83;;;18.10;;
51602;SDS011;37954;51.980;5.850;2023-11-18T06:13:29;27.30;;;18.20;;
51602;SDS011;37954;51.980;5.850;2023-11-18T06:17:40;25.93;;;18.50;;
51602;SDS011;37954;51.980;5.850;2023-11-18T06:21:55;26.13;;;18.20;;
51602;SDS011;37954;51.980;5.850;2023-11-18T06:26:07;27.63;;;17.93;;
51602;SDS011;37954;51.980;5.850;2023-11-18T06:30:21;27.27;;;18.97;;
51602;SDS011;37954;51.980;5.850;2023-11-18T06:34:34;31.00;;;19.00;;
51602;SDS011;37954;51.980;5.850;2023-11-18T06:38:46;26.33;;;18.27;;
51602;SDS011;37954;51.980;5.850;2023-11-18T06:43:01;28.50;;;18.80;;
51602;SDS011;37954;51.980;5.850;2023-11-18T06:47:14;27.90;;;18.43;;
51602;SDS011;37954;51.980;5.850;2023-11-18T06:51:28;25.63;;;17.37;;
51602;SDS011;37954;51.980;5.850;2023-11-18T06:55:40;25.87;;;18.77;;
51602;SDS011;37954;51.980;5.850;2023-11-18T06:59:51;26.27;;;17.77;;
51602;SDS011;37954;51.980;5.850;2023-11-18T07:04:03;25.07;;;16.73;;
51602;SDS011;37954;51.980;5.850;2023-11-18T07:08:15;24.57;;;16.33;;
51602;SDS011;37954;51.980;5.850;2023-11-18T07:12:26;22.40;;;17.23;;
51602;SDS011;37954;51.980;5.850;2023-11-18T07:16:38;23.40;;;16.30;;
51602;SDS011;37954;51.980;5.850;2023-11-18T07:20:51;20.43;;;14.87;;
51602;SDS011;37954;51.980;5.850;2023-11-18T07:25:03;18.13;;;13.60;;
51602;SDS011;37954;51.980;5.850;2023-11-18T07:29:17;21.27;;;14.40;;
51602;SDS011;37954;51.980;5.850;2023-11-18T07:33:29;21.70;;;14.90;;
51602;SDS011;37954;51.980;5.850;2023-11-18T07:37:42;19.30;;;13.33;;
51602;SDS011;37954;51.980;5.850;2023-11-18T07:41:54;18.70;;;12.73;;
51602;SDS011;37954;51.980;5.850;2023-11-18T07:46:12;19.70;;;13.30;;
51602;SDS011;37954;51.980;5.850;2023-11-18T07:50:25;20.47;;;14.70;;
51602;SDS011;37954;51.980;5.850;2023-11-18T07:54:37;16.73;;;12.37;;
51602;SDS011;37954;51.980;5.850;2023-11-18T07:58:49;16.37;;;11.77;;
51602;SDS011;37954;51.980;5.850;2023-11-18T08:03:03;15.17;;;11.80;;
51602;SDS011;37954;51.980;5.850;2023-11-18T08:07:16;18.33;;;12.40;;
51602;SDS011;37954;51.980;5.850;2023-11-18T08:11:28;16.50;;;12.07;;
51602;SDS011;37954;51.980;5.850;2023-11-18T08:15:41;17.70;;;12.77;;
51602;SDS011;37954;51.980;5.850;2023-11-18T08:19:54;19.73;;;11.27;;
51602;SDS011;37954;51.980;5.850;2023-11-18T08:24:08;37.70;;;14.80;;
51602;SDS011;37954;51.980;5.850;2023-11-18T08:28:20;18.03;;;11.43;;
51602;SDS011;37954;51.980;5.850;2023-11-18T08:32:32;13.60;;;10.13;;
51602;SDS011;37954;51.980;5.850;2023-11-18T08:36:44;13.33;;;9.20;;
51602;SDS011;37954;51.980;5.850;2023-11-18T08:40:55;16.77;;;11.00;;
51602;SDS011;37954;51.980;5.850;2023-11-18T08:45:07;13.53;;;10.20;;
51602;SDS011;37954;51.980;5.850;2023-11-18T08:49:20;15.90;;;10.50;;
51602;SDS011;37954;51.980;5.850;2023-11-18T08:53:34;17.77;;;10.50;;
51602;SDS011;37954;51.980;5.850;2023-11-18T08:57:52;14.60;;;9.90;;
51602;SDS011;37954;51.980;5.850;2023-11-18T09:02:09;15.43;;;9.83;;
51602;SDS011;37954;51.980;5.850;2023-11-18T09:06:26;14.00;;;9.67;;
51602;SDS011;37954;51.980;5.850;2023-11-18T09:15:22;16.13;;;10.13;;
51602;SDS011;37954;51.980;5.850;2023-11-18T09:19:33;19.43;;;11.03;;
51602;SDS011;37954;51.980;5.850;2023-11-18T09:23:46;19.17;;;11.20;;
51602;SDS011;37954;51.980;5.850;2023-11-18T09:28:00;16.77;;;10.70;;
51602;SDS011;37954;51.980;5.850;2023-11-18T09:32:14;16.90;;;10.37;;
51602;SDS011;37954;51.980;5.850;2023-11-18T09:36:26;16.70;;;10.47;;
51602;SDS011;37954;51.980;5.850;2023-11-18T09:40:40;15.77;;;9.90;;
51602;SDS011;37954;51.980;5.850;2023-11-18T09:44:54;16.43;;;10.50;;
51602;SDS011;37954;51.980;5.850;2023-11-18T09:49:17;16.43;;;10.63;;
51602;SDS011;37954;51.980;5.850;2023-11-18T09:53:45;17.17;;;10.03;;
51602;SDS011;37954;51.980;5.850;2023-11-18T09:58:03;17.40;;;10.33;;
51602;SDS011;37954;51.980;5.850;2023-11-18T10:02:20;16.53;;;10.60;;
51602;SDS011;37954;51.980;5.850;2023-11-18T10:06:35;19.93;;;12.10;;
51602;SDS011;37954;51.980;5.850;2023-11-18T10:10:47;20.10;;;10.87;;
51602;SDS011;37954;51.980;5.850;2023-11-18T10:14:59;16.70;;;9.20;;
51602;SDS011;37954;51.980;5.850;2023-11-18T10:19:10;13.47;;;8.53;;
51602;SDS011;37954;51.980;5.850;2023-11-18T10:23:23;11.53;;;7.87;;
51602;SDS011;37954;51.980;5.850;2023-11-18T10:27:39;15.30;;;8.50;;
51602;SDS011;37954;51.980;5.850;2023-11-18T10:32:04;15.27;;;8.00;;
51602;SDS011;37954;51.980;5.850;2023-11-18T10:36:27;15.73;;;8.33;;
51602;SDS011;37954;51.980;5.850;2023-11-18T10:40:39;14.43;;;8.47;;
51602;SDS011;37954;51.980;5.850;2023-11-18T10:44:54;15.07;;;7.37;;
51602;SDS011;37954;51.980;5.850;2023-11-18T10:49:08;15.20;;;8.30;;
51602;SDS011;37954;51.980;5.850;2023-11-18T10:53:21;32.00;;;17.23;;
51602;SDS011;37954;51.980;5.850;2023-11-18T10:57:34;14.10;;;7.90;;
51602;SDS011;37954;51.980;5.850;2023-11-18T11:01:47;12.30;;;6.83;;
51602;SDS011;37954;51.980;5.850;2023-11-18T11:06:04;9.37;;;6.53;;
51602;SDS011;37954;51.980;5.850;2023-11-18T11:10:28;9.73;;;6.63;;
51602;SDS011;37954;51.980;5.850;2023-11-18T11:14:42;11.13;;;6.83;;
51602;SDS011;37954;51.980;5.850;2023-11-18T11:19:02;15.00;;;6.60;;
51602;SDS011;37954;51.980;5.850;2023-11-18T11:27:59;10.30;;;6.80;;
51602;SDS011;37954;51.980;5.850;2023-11-18T11:32:32;14.70;;;6.53;;
51602;SDS011;37954;51.980;5.850;2023-11-18T11:36:50;17.23;;;7.47;;
51602;SDS011;37954;51.980;5.850;2023-11-18T11:41:04;11.07;;;7.10;;
51602;SDS011;37954;51.980;5.850;2023-11-18T11:45:19;11.73;;;6.87;;
51602;SDS011;37954;51.980;5.850;2023-11-18T11:49:41;11.77;;;6.93;;
51602;SDS011;37954;51.980;5.850;2023-11-18T11:54:13;10.80;;;6.20;;
51602;SDS011;37954;51.980;5.850;2023-11-18T11:58:36;11.50;;;6.70;;
51602;SDS011;37954;51.980;5.850;2023-11-18T12:02:49;10.23;;;6.87;;
51602;SDS011;37954;51.980;5.850;2023-11-18T12:07:04;9.93;;;6.53;;
51602;SDS011;37954;51.980;5.850;2023-11-18T12:11:28;11.47;;;6.70;;
51602;SDS011;37954;51.980;5.850;2023-11-18T12:15:48;9.97;;;6.17;;
51602;SDS011;37954;51.980;5.850;2023-11-18T12:20:37;9.37;;;6.33;;
51602;SDS011;37954;51.980;5.850;2023-11-18T12:29:30;9.07;;;5.63;;
51602;SDS011;37954;51.980;5.850;2023-11-18T12:38:14;9.90;;;6.00;;
51602;SDS011;37954;51.980;5.850;2023-11-18T12:42:58;8.93;;;5.33;;
51602;SDS011;37954;51.980;5.850;2023-11-18T12:47:11;6.70;;;4.90;;
51602;SDS011;37954;51.980;5.850;2023-11-18T12:51:30;6.27;;;4.80;;
51602;SDS011;37954;51.980;5.850;2023-11-18T12:55:45;8.00;;;4.23;;
51602;SDS011;37954;51.980;5.850;2023-11-18T12:59:59;6.67;;;4.30;;
51602;SDS011;37954;51.980;5.850;2023-11-18T13:04:12;9.97;;;5.33;;
51602;SDS011;37954;51.980;5.850;2023-11-18T13:08:25;7.20;;;4.50;;
51602;SDS011;37954;51.980;5.850;2023-11-18T13:12:38;7.17;;;3.90;;
51602;SDS011;37954;51.980;5.850;2023-11-18T13:16:51;9.37;;;4.17;;
51602;SDS011;37954;51.980;5.850;2023-11-18T13:21:07;6.57;;;3.77;;
51602;SDS011;37954;51.980;5.850;2023-11-18T13:25:22;5.57;;;4.50;;
51602;SDS011;37954;51.980;5.850;2023-11-18T13:29:35;6.77;;;3.63;;
51602;SDS011;37954;51.980;5.850;2023-11-18T13:33:47;6.40;;;3.63;;
51602;SDS011;37954;51.980;5.850;2023-11-18T13:38:02;6.63;;;3.53;;
51602;SDS011;37954;51.980;5.850;2023-11-18T13:42:20;4.03;;;3.43;;
51602;SDS011;37954;51.980;5.850;2023-11-18T13:46:37;7.57;;;3.47;;
51602;SDS011;37954;51.980;5.850;2023-11-18T13:50:51;5.33;;;3.70;;
51602;SDS011;37954;51.980;5.850;2023-11-18T13:55:05;6.17;;;3.90;;
51602;SDS011;37954;51.980;5.850;2023-11-18T13:59:18;6.87;;;3.97;;
51602;SDS011;37954;51.980;5.850;2023-11-18T14:03:30;4.30;;;3.13;;
51602;SDS011;37954;51.980;5.850;2023-11-18T14:07:43;3.07;;;2.30;;
51602;SDS011;37954;51.980;5.850;2023-11-18T14:11:56;3.60;;;2.23;;
51602;SDS011;37954;51.980;5.850;2023-11-18T14:16:08;4.53;;;3.00;;
51602;SDS011;37954;51.980;5.850;2023-11-18T14:20:21;4.00;;;2.97;;
51602;SDS011;37954;51.980;5.850;2023-11-18T14:24:34;3.00;;;2.30;;
51602;SDS011;37954;51.980;5.850;2023-11-18T14:28:45;3.37;;;2.23;;
51602;SDS011;37954;51.980;5.850;2023-11-18T14:32:57;3.00;;;2.70;;
51602;SDS011;37954;51.980;5.850;2023-11-18T14:37:09;4.67;;;3.20;;
51602;SDS011;37954;51.980;5.850;2023-11-18T14:41:22;4.60;;;3.77;;
51602;SDS011;37954;51.980;5.850;2023-11-18T14:45:40;9.03;;;6.23;;
51602;SDS011;37954;51.980;5.850;2023-11-18T14:49:51;5.23;;;3.50;;
51602;SDS011;37954;51.980;5.850;2023-11-18T14:54:03;2.93;;;2.63;;
51602;SDS011;37954;51.980;5.850;2023-11-18T14:58:17;5.27;;;3.50;;
51602;SDS011;37954;51.980;5.850;2023-11-18T15:02:29;5.13;;;3.13;;
51602;SDS011;37954;51.980;5.850;2023-11-18T15:06:40;6.00;;;3.67;;
51602;SDS011;37954;51.980;5.850;2023-11-18T15:10:52;4.97;;;3.10;;
51602;SDS011;37954;51.980;5.850;2023-11-18T15:15:04;3.30;;;2.85;;
51602;SDS011;37954;51.980;5.850;2023-11-18T15:19:16;5.43;;;4.53;;
51602;SDS011;37954;51.980;5.850;2023-11-18T15:23:29;7.20;;;5.43;;
51602;SDS011;37954;51.980;5.850;2023-11-18T15:27:41;6.40;;;4.60;;
51602;SDS011;37954;51.980;5.850;2023-11-18T15:31:54;4.03;;;3.30;;
51602;SDS011;37954;51.980;5.850;2023-11-18T15:36:06;3.03;;;2.47;;
51602;SDS011;37954;51.980;5.850;2023-11-18T15:40:19;3.33;;;2.20;;
51602;SDS011;37954;51.980;5.850;2023-11-18T15:49:09;4.07;;;3.20;;
51602;SDS011;37954;51.980;5.850;2023-11-18T15:53:23;3.13;;;2.83;;
51602;SDS011;37954;51.980;5.850;2023-11-18T15:57:36;2.17;;;1.97;;
51602;SDS011;37954;51.980;5.850;2023-11-18T16:01:49;3.07;;;2.67;;
51602;SDS011;37954;51.980;5.850;2023-11-18T16:06:01;3.20;;;2.73;;
51602;SDS011;37954;51.980;5.850;2023-11-18T16:10:13;3.50;;;3.20;;
51602;SDS011;37954;51.980;5.850;2023-11-18T16:14:35;3.00;;;2.80;;
51602;SDS011;37954;51.980;5.850;2023-11-18T16:18:47;2.50;;;2.30;;
51602;SDS011;37954;51.980;5.850;2023-11-18T16:22:58;11.63;;;3.03;;
51602;SDS011;37954;51.980;5.850;2023-11-18T16:27:15;3.10;;;2.80;;
51602;SDS011;37954;51.980;5.850;2023-11-18T16:31:26;2.87;;;2.60;;
51602;SDS011;37954;51.980;5.850;2023-11-18T16:35:38;2.30;;;2.10;;
51602;SDS011;37954;51.980;5.850;2023-11-18T16:39:50;12.37;;;2.67;;
51602;SDS011;37954;51.980;5.850;2023-11-18T16:44:02;7.73;;;2.30;;
51602;SDS011;37954;51.980;5.850;2023-11-18T16:48:14;1.70;;;1.60;;
51602;SDS011;37954;51.980;5.850;2023-11-18T16:52:26;1.60;;;1.50;;
51602;SDS011;37954;51.980;5.850;2023-11-18T16:56:38;1.70;;;1.60;;
51602;SDS011;37954;51.980;5.850;2023-11-18T17:00:49;1.57;;;1.47;;
51602;SDS011;37954;51.980;5.850;2023-11-18T17:05:03;3.47;;;2.27;;
51602;SDS011;37954;51.980;5.850;2023-11-18T17:09:19;2.53;;;1.90;;
51602;SDS011;37954;51.980;5.850;2023-11-18T17:13:30;1.97;;;1.80;;
51602;SDS011;37954;51.980;5.850;2023-11-18T17:17:47;1.43;;;1.33;;
51602;SDS011;37954;51.980;5.850;2023-11-18T17:22:14;1.73;;;1.60;;
51602;SDS011;37954;51.980;5.850;2023-11-18T17:26:25;1.70;;;1.60;;
51602;SDS011;37954;51.980;5.850;2023-11-18T17:30:37;2.17;;;1.98;;
51602;SDS011;37954;51.980;5.850;2023-11-18T17:34:49;2.10;;;1.90;;
51602;SDS011;37954;51.980;5.850;2023-11-18T17:39:01;1.80;;;1.70;;
51602;SDS011;37954;51.980;5.850;2023-11-18T17:43:14;1.65;;;1.55;;
51602;SDS011;37954;51.980;5.850;2023-11-18T17:47:26;2.00;;;1.90;;
51602;SDS011;37954;51.980;5.850;2023-11-18T17:51:37;1.95;;;1.80;;
51602;SDS011;37954;51.980;5.850;2023-11-18T17:55:49;1.80;;;1.70;;
51602;SDS011;37954;51.980;5.850;2023-11-18T18:00:02;2.47;;;2.17;;
51602;SDS011;37954;51.980;5.850;2023-11-18T18:04:20;1.90;;;1.80;;
51602;SDS011;37954;51.980;5.850;2023-11-18T18:08:31;2.10;;;2.00;;
51602;SDS011;37954;51.980;5.850;2023-11-18T18:12:45;1.98;;;1.88;;
51602;SDS011;37954;51.980;5.850;2023-11-18T18:16:58;2.78;;;2.58;;
51602;SDS011;37954;51.980;5.850;2023-11-18T18:21:10;3.75;;;3.45;;
51602;SDS011;37954;51.980;5.850;2023-11-18T18:25:21;3.25;;;3.00;;
51602;SDS011;37954;51.980;5.850;2023-11-18T18:29:33;3.83;;;3.45;;
51602;SDS011;37954;51.980;5.850;2023-11-18T18:33:45;8.75;;;7.82;;
51602;SDS011;37954;51.980;5.850;2023-11-18T18:37:58;6.93;;;5.93;;
51602;SDS011;37954;51.980;5.850;2023-11-18T18:42:10;5.47;;;4.53;;
51602;SDS011;37954;51.980;5.850;2023-11-18T18:46:22;3.67;;;3.38;;
51602;SDS011;37954;51.980;5.850;2023-11-18T18:50:33;7.18;;;6.57;;
51602;SDS011;37954;51.980;5.850;2023-11-18T18:54:51;9.18;;;8.27;;
51602;SDS011;37954;51.980;5.850;2023-11-18T18:59:04;9.70;;;8.90;;
51602;SDS011;37954;51.980;5.850;2023-11-18T19:03:22;25.40;;;9.10;;
51602;SDS011;37954;51.980;5.850;2023-11-18T19:07:34;5.05;;;4.65;;
51602;SDS011;37954;51.980;5.850;2023-11-18T19:11:47;4.80;;;4.40;;
51602;SDS011;37954;51.980;5.850;2023-11-18T19:16:10;3.75;;;3.45;;
51602;SDS011;37954;51.980;5.850;2023-11-18T19:20:22;4.03;;;3.72;;
51602;SDS011;37954;51.980;5.850;2023-11-18T19:24:35;4.30;;;4.00;;
51602;SDS011;37954;51.980;5.850;2023-11-18T19:28:49;4.28;;;3.97;;
51602;SDS011;37954;51.980;5.850;2023-11-18T19:33:01;3.75;;;3.45;;
51602;SDS011;37954;51.980;5.850;2023-11-18T19:37:13;5.10;;;4.50;;
51602;SDS011;37954;51.980;5.850;2023-11-18T19:41:24;4.47;;;4.07;;
51602;SDS011;37954;51.980;5.850;2023-11-18T19:45:36;5.03;;;4.63;;
51602;SDS011;37954;51.980;5.850;2023-11-18T19:49:48;4.30;;;4.00;;
51602;SDS011;37954;51.980;5.850;2023-11-18T19:54:00;4.63;;;4.22;;
51602;SDS011;37954;51.980;5.850;2023-11-18T19:58:11;4.40;;;4.05;;
51602;SDS011;37954;51.980;5.850;2023-11-18T20:02:23;5.15;;;4.65;;
51602;SDS011;37954;51.980;5.850;2023-11-18T20:06:35;4.50;;;4.18;;
51602;SDS011;37954;51.980;5.850;2023-11-18T20:10:47;4.38;;;4.07;;
51602;SDS011;37954;51.980;5.850;2023-11-18T20:15:14;4.80;;;4.40;;
51602;SDS011;37954;51.980;5.850;2023-11-18T20:19:26;4.50;;;4.10;;
51602;SDS011;37954;51.980;5.850;2023-11-18T20:23:41;4.95;;;4.55;;
51602;SDS011;37954;51.980;5.850;2023-11-18T20:27:52;4.60;;;4.22;;
51602;SDS011;37954;51.980;5.850;2023-11-18T20:32:05;4.57;;;4.18;;
51602;SDS011;37954;51.980;5.850;2023-11-18T20:36:17;5.00;;;4.60;;
51602;SDS011;37954;51.980;5.850;2023-11-18T20:40:29;4.65;;;4.35;;
51602;SDS011;37954;51.980;5.850;2023-11-18T20:44:42;4.80;;;4.32;;
51602;SDS011;37954;51.980;5.850;2023-11-18T20:48:53;5.18;;;4.78;;
51602;SDS011;37954;51.980;5.850;2023-11-18T20:53:05;4.95;;;4.55;;
51602;SDS011;37954;51.980;5.850;2023-11-18T20:57:18;4.80;;;4.40;;
51602;SDS011;37954;51.980;5.850;2023-11-18T21:01:31;4.80;;;4.40;;
51602;SDS011;37954;51.980;5.850;2023-11-18T21:05:44;4.93;;;4.50;;
51602;SDS011;37954;51.980;5.850;2023-11-18T21:09:56;5.03;;;4.63;;
51602;SDS011;37954;51.980;5.850;2023-11-18T21:14:08;6.47;;;5.88;;
51602;SDS011;37954;51.980;5.850;2023-11-18T21:18:20;7.22;;;6.53;;
51602;SDS011;37954;51.980;5.850;2023-11-18T21:22:31;13.95;;;12.48;;
51602;SDS011;37954;51.980;5.850;2023-11-18T21:26:43;8.45;;;7.65;;
51602;SDS011;37954;51.980;5.850;2023-11-18T21:30:56;6.97;;;6.38;;
51602;SDS011;37954;51.980;5.850;2023-11-18T21:35:09;7.10;;;6.50;;
51602;SDS011;37954;51.980;5.850;2023-11-18T21:39:26;7.07;;;6.47;;
51602;SDS011;37954;51.980;5.850;2023-11-18T21:43:38;6.70;;;6.10;;
51602;SDS011;37954;51.980;5.850;2023-11-18T21:53:30;8.50;;;7.70;;
51602;SDS011;37954;51.980;5.850;2023-11-18T21:57:41;9.55;;;8.68;;
51602;SDS011;37954;51.980;5.850;2023-11-18T22:01:53;8.88;;;8.07;;
51602;SDS011;37954;51.980;5.850;2023-11-18T22:06:08;9.20;;;8.30;;
51602;SDS011;37954;51.980;5.850;2023-11-18T22:10:20;9.27;;;8.48;;
51602;SDS011;37954;51.980;5.850;2023-11-18T22:14:33;9.60;;;8.60;;
51602;SDS011;37954;51.980;5.850;2023-11-18T22:18:44;10.23;;;9.30;;
51602;SDS011;37954;51.980;5.850;2023-11-18T22:22:56;12.55;;;11.27;;
51602;SDS011;37954;51.980;5.850;2023-11-18T22:27:08;10.98;;;9.98;;
51602;SDS011;37954;51.980;5.850;2023-11-18T22:31:21;10.45;;;9.48;;
51602;SDS011;37954;51.980;5.850;2023-11-18T22:35:34;10.23;;;9.23;;
51602;SDS011;37954;51.980;5.850;2023-11-18T22:39:47;12.23;;;11.00;;
51602;SDS011;37954;51.980;5.850;2023-11-18T22:43:59;11.15;;;10.05;;
51602;SDS011;37954;51.980;5.850;2023-11-18T22:48:11;10.48;;;9.57;;
51602;SDS011;37954;51.980;5.850;2023-11-18T22:52:23;11.75;;;10.57;;
51602;SDS011;37954;51.980;5.850;2023-11-18T22:56:37;11.50;;;10.35;;
51602;SDS011;37954;51.980;5.850;2023-11-18T23:00:48;12.35;;;10.98;;
51602;SDS011;37954;51.980;5.850;2023-11-18T23:05:05;10.65;;;9.55;;
51602;SDS011;37954;51.980;5.850;2023-11-18T23:09:17;11.00;;;9.35;;
51602;SDS011;37954;51.980;5.850;2023-11-18T23:13:29;13.38;;;9.88;;
51602;SDS011;37954;51.980;5.850;2023-11-18T23:17:41;10.45;;;9.35;;
51602;SDS011;37954;51.980;5.850;2023-11-18T23:21:53;11.60;;;8.82;;
51602;SDS011;37954;51.980;5.850;2023-11-18T23:26:05;9.15;;;8.23;;
51602;SDS011;37954;51.980;5.850;2023-11-18T23:30:17;10.27;;;9.18;;
51602;SDS011;37954;51.980;5.850;2023-11-18T23:34:32;7.75;;;7.05;;
51602;SDS011;37954;51.980;5.850;2023-11-18T23:38:44;8.68;;;7.78;;
51602;SDS011;37954;51.980;5.850;2023-11-18T23:42:59;8.18;;;7.38;;
51602;SDS011;37954;51.980;5.850;2023-11-18T23:47:12;8.57;;;7.68;;
51602;SDS011;37954;51.980;5.850;2023-11-18T23:51:24;10.40;;;7.78;;
51602;SDS011;37954;51.980;5.850;2023-11-18T23:55:36;10.25;;;8.15;;
51602;SDS011;37954;51.980;5.850;2023-11-18T23:59:47;9.13;;;8.13;;
